Cisco Butte, California Weather observations

Data are for observation ending at time listed.
 Day   Time    Ave.   Ave.  Ave.  Vector   Max.   Stn.    Total    Solar   Ave.   Snow 
  of    of     Air    Rel.  Wind   Wind    Wind   Baro.  Precip.   Rad.    Soil   Depth
Year   Day     Temp.  Hum.  Speed  Dir.    Gust   Pres.                    Temp.       
2016   (PST)    F      %     mph   deg.    mph     mb.     in.     W/m2     F      in. 
---------------------------------------------------------------------------------------  
  42   13:50   58.1    13    4.0   235      9.0   829.0    0.00     321    999.0   91.9
  42   14:00   57.1    14    4.8   244     11.2   829.0    0.00     212    999.0   59.6
  42   14:10   55.8    14    4.6   224     11.3   829.0    0.00     192    999.0   25.9
  42   14:20   55.8    15    2.1   220      6.9   829.0    0.00     183    999.0   19.7
  42   14:30   55.7    17    3.1   207      6.4   829.0    0.00     184    999.0   19.8
  42   14:40   55.8    18    2.2   199      5.8   829.0    0.00     163    999.0   28.1
  42   14:50   54.7    17    3.7   195     12.3   829.0    0.00     129    999.0   19.6
  42   15:00   54.8    17    3.4   213      7.6   829.0    0.00     145    999.0   19.8
  42   15:10   55.1    18    2.0   213      8.4   829.0    0.00     150    999.0   19.6
  42   15:20   54.8    18    3.6   210      8.2   829.0    0.00     173    999.0   19.8
  42   15:30   54.6    18    3.0   173      6.8   829.0    0.00     176    999.0   19.4
  42   15:40   54.2    18    3.9   157      8.8   829.0    0.00     153    999.0   27.9
  42   15:50   54.0    18    4.4   170      8.0   829.0    0.00     150    999.0   19.7
  42   16:00   54.5    17    5.2   181      9.1   829.0    0.00     142    999.0   19.4
  42   16:10   54.1    18    4.2   168      7.9   829.0    0.00     134    999.0   28.0
  42   16:20   54.4    18    3.3   173      8.6   829.0    0.00     109    999.0   19.2
  42   16:30   53.9    18    4.3   172     10.7   829.0    0.00      84    999.0   19.6
  42   16:40   54.5    18    2.1   219      5.8   829.0    0.00      71    999.0   28.2
  42   16:50   55.4    17    2.0   196      4.9   829.0    0.00      63    999.0   19.5
  42   17:00   53.8    18    2.1   190      6.4   829.0    0.00      35    999.0   19.3
  42   17:10   52.9    18    2.9   226      7.1   829.0    0.00      15    999.0   33.5
  42   17:20   52.3    19    1.9   265      7.7   829.0    0.00       9    999.0   20.1
  42   17:30   51.7    19    1.7   218      5.7   829.0    0.00       6    999.0   20.2
  42   17:40   51.2    20    1.5   207      4.8   829.0    0.00       3    999.0   20.2
  42   17:50   51.3    19    2.7   146      5.8   829.0    0.00       1    999.0   21.1
  42   18:00   51.2    20    3.5   113      6.1   829.0    0.00       0    999.0  154.9
  42   18:10   51.0    21    4.4    82      6.9   830.0    0.00       0    999.0  155.2
  42   18:20   50.2    21    2.8    66      5.2   830.0    0.00       0    999.0  155.9
  42   18:30   50.1    21    2.2    88      5.6   830.0    0.00       0    999.0  156.5
  42   18:40   50.0    21    3.4    93      6.7   830.0    0.00       0    999.0  155.2
  42   18:50   49.4    23    4.6    90      8.0   830.0    0.00       0    999.0  155.2
  42   19:00   48.6    24    5.5    84      7.5   830.0    0.00       0    999.0  154.6
  42   19:10   48.3    24    5.1    74      7.7   830.0    0.00       0    999.0   73.3
  42   19:20   47.8    25    5.2    82      7.8   830.0    0.00       0    999.0   59.4
  42   19:30   45.9    26    4.0    76      5.7   830.0    0.00       0    999.0   26.0
  42   19:40   46.5    26    1.7    80      4.2   830.0    0.00       0    999.0   32.1
  42   19:50   47.7    24    0.9    26      2.3   830.0    0.00       0    999.0   26.2
  42   20:00   49.3    23    2.3   272      6.0   830.0    0.00       0    999.0   20.2
  42   20:10   49.7    24    4.7   250      7.9   830.0    0.00       0    999.0   31.9
  42   20:20   49.7    25    5.8   257      9.9   830.0    0.00       0    999.0   20.3
  42   20:30   50.1    26    3.2   272      8.0   830.0    0.00       0    999.0   26.2
  42   20:40   49.9    27    1.1   177      6.6   830.0    0.00       0    999.0   31.5
  42   20:50   49.3    27    1.1   138      6.0   830.0    0.00       0    999.0   20.4
  42   21:00   47.1    27    4.1    93      7.8   830.0    0.00       0    999.0   20.1
  42   21:10   45.1    29    6.1    69      8.8   830.0    0.00       0    999.0   20.2
  42   21:20   45.1    29    4.7    73      8.8   830.0    0.00       0    999.0   20.2
  42   21:30   43.5    31    5.9    77      8.0   830.0    0.00       0    999.0   20.0
  42   21:40   42.7    32    6.4    78      8.5   830.0    0.00       0    999.0   20.1
  42   21:50   43.9    30    6.8    78      8.9   830.0    0.00       0    999.0   20.0
  42   22:00   45.0    28    5.9    74      7.5   830.0    0.00       0    999.0   20.1
  42   22:10   45.3    28    6.1    75      8.2   830.0    0.00       0    999.0   20.2
  42   22:20   44.8    29    6.5    77      9.1   830.0    0.00       0    999.0   20.2
  42   22:30   43.6    30    6.0    83      8.5   830.0    0.00       0    999.0   19.9
  42   22:40   43.1    31    6.8    88      9.7   830.0    0.00       0    999.0   20.0
  42   22:50   43.5    30    7.6    92     10.4   830.0    0.00       0    999.0   20.1
  42   23:00   44.7    28    7.6    93      9.6   830.0    0.00       0    999.0   20.1
  42   23:10   43.6    30    8.2    94     11.2   830.0    0.00       0    999.0   20.1
  42   23:20   44.2    28    7.6    89     10.2   830.0    0.00       0    999.0   26.1
  42   23:30   43.0    30    8.1    94     11.1   830.0    0.00       0    999.0   20.2
  42   23:40   42.3    31    8.8    95     11.5   830.0    0.00       0    999.0   26.0
  42   23:50   41.2    32    9.3    96     11.8   830.0    0.00       0    999.0   20.1
  43    0:00   42.4    30    8.2    80     10.5   830.0    0.00       0    999.0   20.1
  43    0:10   42.9    30    7.6    77     10.3   830.0    0.00       0    999.0   20.1
  43    0:20   42.6    30    7.7    72      9.7   830.0    0.00       0    999.0   20.2
  43    0:30   42.6    31    7.3    70      9.1   830.0    0.00       0    999.0   20.2
  43    0:40   43.0    31    6.8    70      8.8   830.0    0.00       0    999.0   20.2
  43    0:50   45.5    27    4.7    68     10.2   830.0    0.00       0    999.0   20.4
  43    1:00   44.1    30    6.6    77      9.3   830.0    0.00       0    999.0   20.0
  43    1:10   41.0    36    8.7    87     10.9   830.0    0.00       0    999.0   20.0
  43    1:20   40.9    36    7.7    88     10.2   830.0    0.00       0    999.0   19.9
  43    1:30   40.5    38    7.7    96      9.6   830.0    0.00       0    999.0   26.0
  43    1:40   40.4    39    8.0    94     10.0   830.0    0.00       0    999.0   32.0
  43    1:50   40.6    39    8.2    98     11.5   830.0    0.00       0    999.0   19.9
  43    2:00   40.3    39    8.2    96     11.0   830.0    0.00       0    999.0   20.0
  43    2:10   40.6    39    7.6    96     10.5   830.0    0.00       0    999.0   19.8
  43    2:20   40.2    40    7.1    98     10.2   830.0    0.00       0    999.0   20.1
  43    2:30   39.7    41    7.5   101     10.2   830.0    0.00       0    999.0   20.0
  43    2:40   39.2    42    7.2    95      9.4   830.0    0.00       0    999.0   19.9
  43    2:50   40.0    40    7.2    98      9.2   830.0    0.00       0    999.0   20.0
  43    3:00   40.4    39    7.6    99     10.9   830.0    0.00       0    999.0   32.0
  43    3:10   39.9    40    9.1   104     13.4   830.0    0.00       0    999.0   20.0
  43    3:20   39.1    41    9.2   108     13.4   830.0    0.00       0    999.0   19.8
  43    3:30   39.3    40    9.0   109     12.9   830.0    0.00       0    999.0   20.0
  43    3:40   38.8    41    8.4   108     11.5   830.0    0.00       0    999.0   19.9
  43    3:50   39.3    40    9.2   109     12.7   830.0    0.00       0    999.0   19.9
  43    4:00   38.8    41    7.5   108     10.8   830.0    0.00       0    999.0   19.9
  43    4:10   39.4    39    6.8   104      9.9   830.0    0.00       0    999.0   26.0
  43    4:20   39.5    38    7.8   105     12.9   830.0    0.00       0    999.0   19.9
  43    4:30   38.8    40    6.5   100     10.4   830.0    0.00       0    999.0   20.0
  43    4:40   39.3    38    7.6    98     10.7   830.0    0.00       0    999.0   20.0
  43    4:50   39.1    38    6.7    97     10.1   830.0    0.00       0    999.0   20.0
  43    5:00   39.0    39    7.2   106     10.3   830.0    0.00       0    999.0   26.0
  43    5:10   38.2    40    7.3   104     11.4   830.0    0.00       0    999.0   19.9
  43    5:20   38.5    39    6.3   101      9.6   830.0    0.00       0    999.0   32.0
  43    5:30   38.3    39    7.8   104     12.3   830.0    0.00       0    999.0   20.0
  43    5:40   38.2    38    8.0   102     11.9   830.0    0.00       0    999.0   20.2
  43    5:50   38.8    36    8.0    97     12.3   830.0    0.00       0    999.0   25.7
  43    6:00   38.9    36    6.9   100     11.0   830.0    0.00       0    999.0   20.0
  43    6:10   38.6    36    8.1   107     12.3   830.0    0.00       0    999.0   19.9
  43    6:20   38.5    36    8.7   105     12.2   830.0    0.00       0    999.0   20.0
  43    6:30   38.0    37    8.1   103     12.9   830.0    0.00       0    999.0   19.9
  43    6:40   38.3    36    7.3   100      9.9   830.0    0.00       0    999.0   20.0
  43    6:50   37.8    37    8.5   105     12.6   830.0    0.00       0    999.0   19.9
  43    7:00   37.9    36    9.1   107     13.4   830.0    0.00       1    999.0   25.9
  43    7:10   38.0    36    9.4   107     13.4   830.0    0.00       3    999.0   19.9
  43    7:20   37.7    36   10.0   108     15.1   830.0    0.00       6    999.0   26.0
  43    7:30   38.4    34    9.4   106     13.5   830.0    0.00       9    999.0   20.0
  43    7:40   38.4    34    8.9   104     12.8   830.0    0.00      12    999.0   19.8
  43    7:50   38.3    34    8.5   107     11.7   830.0    0.00      19    999.0   19.9
  43    8:00   38.3    34    8.8   106     12.7   830.0    0.00      19    999.0   20.0
  43    8:10   38.5    34    9.2   107     13.2   830.0    0.00      27    999.0   31.9
  43    8:20   39.0    33    8.0   105     11.1   830.0    0.00      53    999.0   19.9
  43    8:30   40.4    31    7.8   104     10.8   830.0    0.00      89    999.0   19.8
  43    8:40   41.6    29    8.2   106     10.8   830.0    0.00     118    999.0   19.8
  43    8:50   42.9    27    7.4   102     11.2   831.0    0.00     162    999.0   31.5
  43    9:00   44.2    26    7.9   110     11.0   831.0    0.00     177    999.0   37.5
  43    9:10   45.4    24    7.3   110     11.2   831.0    0.00     204    999.0   19.5
  43    9:20   45.8    24    6.9   106      9.9   831.0    0.00     225    999.0   19.5
  43    9:30   46.2    24    6.9   104      9.6   831.0    0.00     244    999.0   19.5
  43    9:40   47.8    22    6.7   105      9.3   830.0    0.00     264    999.0   19.5
  43    9:50   48.9    21    6.7   100      8.7   830.0    0.00     288    999.0   19.4
  43   10:00   50.0    20    6.9   102      9.0   830.0    0.00     303    999.0   19.4
  43   10:10   50.9    19    7.3    96     10.6   830.0    0.00     311    999.0   19.4
  43   10:20   51.8    19    5.3    98      8.8   830.0    0.00     304    999.0   19.2
  43   10:30   52.7    17    4.8   116      8.2   830.0    0.00     324    999.0   19.5
  43   10:40   53.6    15    6.1   140     10.6   830.0    0.00     332    999.0   19.3
  43   10:50   54.1    14    4.3   146      8.3   830.0    0.00     299    999.0   28.6
  43   11:00   54.5    14    4.2   145      8.8   830.0    0.00     319    999.0   81.7
  43   11:10   56.0    15    3.2   243     10.2   830.0    0.00     355    999.0   28.0
  43   11:20   57.0    12    7.3   267     12.9   830.0    0.00     367    999.0   19.2
  43   11:30   57.7    12    6.7   252     13.3   830.0    0.00     383    999.0   28.2
  43   11:40   57.5    13    5.9   245     14.2   830.0    0.00     391    999.0   19.3
  43   11:50   57.4    14    7.4   266     14.5   830.0    0.00     376    999.0   19.4
  43   12:00   57.2    14    8.1   267     12.1   830.0    0.00     402    999.0   28.0
  43   12:10   57.5    15    5.4   246     10.4   830.0    0.00     401    999.0   28.7
  43   12:20   57.9    16    5.6   253     11.5   830.0    0.00     346    999.0   27.6
  43   12:30   57.6    16    5.5   258     10.0   829.0    0.00     385    999.0   19.3
  43   12:40   58.1    18    6.4   267     11.3   829.0    0.00     387    999.0   19.1
  43   12:50   57.6    19    6.8   270     14.5   829.0    0.00     426    999.0   19.5
  43   13:00   55.1    20    9.5   280     15.2   829.0    0.00     274    999.0   19.5
  43   13:10   54.1    21    9.4   285     15.3   829.0    0.00     407    999.0   28.3
  43   13:20   53.9    23    9.6   284     14.0   829.0    0.00     261    999.0   19.8
  43   13:30   52.0    25    9.8   285     14.5   829.0    0.00     165    999.0   37.4
  43   13:40   52.2    27    7.6   284     12.2   829.0    0.00     259    999.0   31.5

Return to Cisco Butte graphs page.


Western Regional Climate Center,wrcc@dri.edu